PWSweather.com
Personal Weather Stations
Station Observations
KFLPOINC2
Poinciana Kissimmee, Poinciana, FL 34758

Poinciana KissimmeePoinciana, FL 34758

Lat: 28.161417, Lon: -81.477557

Elevation: 88

Station Type: Ambient Weather WS 2080

Latest ConditionsUpdated 2:15:01 PM EST Sunday, Mar 1, 2015
Currently Today's Max Today's Min Today's Average
Temperature 81.7°F27.6°C 81.7°F27.6°C 65.3°F18.5°C 70.4°F21.3°C
Dew Point 70.1°F21.2°C 71.5°F21.9°C 64.7°F18.2°C 67.2°F19.6°C
Winds 7.0 mph NE11.3 kmh NE 8.2 mph ESE13.2 kmh ESE - 3.9 mph 6.3 kmh
Wind Gusts 9.2 mph14.8 kmh 15.9 mph25.6 kmh - -
Humidity 68% 98% 66% 90%
Pressure 30.16 in1021.3 mb 30.16 in1021.3 mb 30.16 in1021.3 mb -
Precipitation - 0.01 in0.3 mm - -
Hour Temp Dew Point Humidity Winds Wind Gusts Pressure Precip Precip Rate Daily Precip Total
02:15 PM 81.7°F27.6°C 70.1°F21.2°C 68% 7.0 mph NE11.3 kmh NE 9.2 mph14.8 kmh 30.16 in1021.3 mb 0.00 in0.0 mm 0.00 in/hr0.0 mm/hr 0.01 in0.3 mm
02:10 PM 81.3°F27.4°C 69.8°F21.0°C 68% 7.3 mph NE11.7 kmh NE 9.8 mph15.8 kmh 30.16 in1021.3 mb 0.00 in0.0 mm 0.00 in/hr0.0 mm/hr 0.01 in0.3 mm
02:05 PM 81.5°F27.5°C 69.5°F20.8°C 67% 7.1 mph NE11.4 kmh NE 9.8 mph15.8 kmh 30.16 in1021.3 mb 0.00 in0.0 mm 0.00 in/hr0.0 mm/hr 0.01 in0.3 mm
02:00 PM 81.3°F27.4°C 69.8°F21.0°C 68% 6.5 mph NE10.5 kmh NE 8.3 mph13.4 kmh 30.16 in1021.3 mb 0.00 in0.0 mm 0.00 in/hr0.0 mm/hr 0.01 in0.3 mm
01:55 PM 81.3°F27.4°C 69.8°F21.0°C 68% 6.3 mph NE10.1 kmh NE 9.2 mph14.8 kmh 30.16 in1021.3 mb 0.00 in0.0 mm 0.00 in/hr0.0 mm/hr 0.01 in0.3 mm
01:50 PM 80.8°F27.1°C 69.7°F20.9°C 69% 7.4 mph ENE11.9 kmh ENE 9.8 mph15.8 kmh 30.16 in1021.3 mb 0.00 in0.0 mm 0.00 in/hr0.0 mm/hr 0.01 in0.3 mm
01:45 PM 81.0°F27.2°C 69.9°F21.1°C 69% 7.3 mph NE11.7 kmh NE 9.8 mph15.8 kmh 30.16 in1021.3 mb 0.00 in0.0 mm 0.00 in/hr0.0 mm/hr 0.01 in0.3 mm
01:40 PM 80.8°F27.1°C 69.3°F20.7°C 68% 6.6 mph NE10.6 kmh NE 9.2 mph14.8 kmh 30.16 in1021.3 mb 0.00 in0.0 mm 0.00 in/hr0.0 mm/hr 0.01 in0.3 mm
01:35 PM 80.8°F27.1°C 68.4°F20.2°C 66% 5.4 mph NE8.7 kmh NE 9.2 mph14.8 kmh 30.16 in1021.3 mb 0.00 in0.0 mm 0.00 in/hr0.0 mm/hr 0.01 in0.3 mm
01:30 PM 80.2°F26.8°C 69.6°F20.9°C 70% 3.7 mph ENE6.0 kmh ENE 5.4 mph8.7 kmh 30.16 in1021.3 mb 0.00 in0.0 mm 0.00 in/hr0.0 mm/hr 0.01 in0.3 mm
01:25 PM 79.5°F26.4°C 69.3°F20.7°C 71% 5.0 mph ENE8.0 kmh ENE 6.9 mph11.1 kmh 30.16 in1021.3 mb 0.00 in0.0 mm 0.00 in/hr0.0 mm/hr 0.01 in0.3 mm
01:20 PM 79.3°F26.3°C 68.3°F20.2°C 69% 6.0 mph NE9.7 kmh NE 8.3 mph13.4 kmh 30.16 in1021.3 mb 0.00 in0.0 mm 0.00 in/hr0.0 mm/hr 0.01 in0.3 mm
01:15 PM 79.7°F26.5°C 69.1°F20.6°C 70% 4.9 mph NE7.9 kmh NE 8.3 mph13.4 kmh 30.16 in1021.3 mb 0.00 in0.0 mm 0.00 in/hr0.0 mm/hr 0.01 in0.3 mm
01:10 PM 79.9°F26.6°C 69.3°F20.7°C 70% 4.5 mph NE7.2 kmh NE 6.9 mph11.1 kmh 30.16 in1021.3 mb 0.00 in0.0 mm 0.00 in/hr0.0 mm/hr 0.01 in0.3 mm
01:05 PM 80.2°F26.8°C 69.6°F20.9°C 70% 4.7 mph NE7.6 kmh NE 6.9 mph11.1 kmh 30.16 in1021.3 mb 0.00 in0.0 mm 0.00 in/hr0.0 mm/hr 0.01 in0.3 mm
01:00 PM 79.3°F26.3°C 69.6°F20.9°C 72% 4.5 mph NE7.2 kmh NE 6.9 mph11.1 kmh 30.16 in1021.3 mb 0.00 in0.0 mm 0.00 in/hr0.0 mm/hr 0.01 in0.3 mm
12:55 PM 79.0°F26.1°C 69.2°F20.7°C 72% 5.7 mph NE9.2 kmh NE 8.3 mph13.4 kmh 30.16 in1021.3 mb 0.00 in0.0 mm 0.00 in/hr0.0 mm/hr 0.01 in0.3 mm
12:50 PM 79.0°F26.1°C 69.2°F20.7°C 72% 6.1 mph NE9.8 kmh NE 8.3 mph13.4 kmh 30.16 in1021.3 mb 0.00 in0.0 mm 0.00 in/hr0.0 mm/hr 0.01 in0.3 mm
12:45 PM 79.0°F26.1°C 68.8°F20.4°C 71% 6.3 mph ENE10.1 kmh ENE 8.3 mph13.4 kmh 30.16 in1021.3 mb 0.00 in0.0 mm 0.00 in/hr0.0 mm/hr 0.01 in0.3 mm
12:40 PM 79.0°F26.1°C 68.8°F20.4°C 71% 6.3 mph E10.1 kmh E 9.2 mph14.8 kmh 30.16 in1021.3 mb 0.00 in0.0 mm 0.00 in/hr0.0 mm/hr 0.01 in0.3 mm
12:35 PM 79.3°F26.3°C 68.8°F20.4°C 70% 7.5 mph ESE12.1 kmh ESE 15.9 mph25.6 kmh 30.16 in1021.3 mb 0.00 in0.0 mm 0.00 in/hr0.0 mm/hr 0.01 in0.3 mm
12:30 PM 79.2°F26.2°C 68.6°F20.3°C 70% 7.5 mph ESE12.1 kmh ESE 15.9 mph25.6 kmh 30.16 in1021.3 mb 0.00 in0.0 mm 0.00 in/hr0.0 mm/hr 0.01 in0.3 mm
12:25 PM 79.2°F26.2°C 68.6°F20.3°C 70% 7.2 mph E11.6 kmh E 11.4 mph18.3 kmh 30.16 in1021.3 mb 0.00 in0.0 mm 0.00 in/hr0.0 mm/hr 0.01 in0.3 mm
12:20 PM 79.5°F26.4°C 68.9°F20.5°C 70% 8.2 mph ESE13.2 kmh ESE 11.4 mph18.3 kmh 30.16 in1021.3 mb 0.00 in0.0 mm 0.00 in/hr0.0 mm/hr 0.01 in0.3 mm
12:15 PM 79.2°F26.2°C 68.6°F20.3°C 70% 7.8 mph E12.6 kmh E 10.7 mph17.2 kmh 30.16 in1021.3 mb 0.00 in0.0 mm 0.00 in/hr0.0 mm/hr 0.01 in0.3 mm
12:10 PM 79.5°F26.4°C 69.7°F20.9°C 72% 6.5 mph E10.5 kmh E 10.7 mph17.2 kmh 30.16 in1021.3 mb 0.00 in0.0 mm 0.00 in/hr0.0 mm/hr 0.01 in0.3 mm
12:05 PM 79.3°F26.3°C 70.4°F21.3°C 74% 5.0 mph E8.0 kmh E 6.9 mph11.1 kmh 30.16 in1021.3 mb 0.00 in0.0 mm 0.00 in/hr0.0 mm/hr 0.01 in0.3 mm
12:00 PM 79.0°F26.1°C 70.0°F21.1°C 74% 5.0 mph ENE8.0 kmh ENE 6.9 mph11.1 kmh 30.16 in1021.3 mb 0.00 in0.0 mm 0.00 in/hr0.0 mm/hr 0.01 in0.3 mm
11:55 AM 79.2°F26.2°C 71.0°F21.7°C 76% 5.0 mph E8.0 kmh E 6.9 mph11.1 kmh 30.16 in1021.3 mb 0.00 in0.0 mm 0.00 in/hr0.0 mm/hr 0.01 in0.3 mm
11:50 AM 78.4°F25.8°C 71.4°F21.9°C 79% 5.7 mph ENE9.2 kmh ENE 7.6 mph12.2 kmh 30.16 in1021.3 mb 0.00 in0.0 mm 0.00 in/hr0.0 mm/hr 0.01 in0.3 mm
11:45 AM 77.9°F25.5°C 70.5°F21.4°C 78% 6.0 mph NE9.7 kmh NE 8.3 mph13.4 kmh 30.16 in1021.3 mb 0.00 in0.0 mm 0.00 in/hr0.0 mm/hr 0.01 in0.3 mm
11:40 AM 78.1°F25.6°C 71.1°F21.7°C 79% 5.5 mph NE8.9 kmh NE 8.3 mph13.4 kmh 30.16 in1021.3 mb 0.00 in0.0 mm 0.00 in/hr0.0 mm/hr 0.01 in0.3 mm
11:35 AM 77.7°F25.4°C 71.5°F21.9°C 81% 4.8 mph E7.7 kmh E 7.6 mph12.2 kmh 30.16 in1021.3 mb 0.00 in0.0 mm 0.00 in/hr0.0 mm/hr 0.01 in0.3 mm
11:30 AM 77.4°F25.2°C 71.5°F21.9°C 82% 4.6 mph E7.4 kmh E 6.0 mph9.7 kmh 30.16 in1021.3 mb 0.00 in0.0 mm 0.00 in/hr0.0 mm/hr 0.01 in0.3 mm
11:25 AM 76.5°F24.7°C 71.0°F21.7°C 83% 5.3 mph E8.5 kmh E 6.9 mph11.1 kmh 30.16 in1021.3 mb 0.00 in0.0 mm 0.00 in/hr0.0 mm/hr 0.01 in0.3 mm
11:20 AM 76.1°F24.5°C 70.3°F21.3°C 82% 6.3 mph E10.1 kmh E 7.6 mph12.2 kmh 30.16 in1021.3 mb 0.00 in0.0 mm 0.00 in/hr0.0 mm/hr 0.01 in0.3 mm
11:15 AM 76.3°F24.6°C 70.8°F21.6°C 83% 6.5 mph ENE10.5 kmh ENE 7.6 mph12.2 kmh 30.16 in1021.3 mb 0.00 in0.0 mm 0.00 in/hr0.0 mm/hr 0.01 in0.3 mm
11:10 AM 75.7°F24.3°C 70.3°F21.3°C 83% 6.3 mph ENE10.1 kmh ENE 7.6 mph12.2 kmh 30.16 in1021.3 mb 0.00 in0.0 mm 0.00 in/hr0.0 mm/hr 0.01 in0.3 mm
11:05 AM 75.2°F24.0°C 69.7°F20.9°C 83% 5.1 mph E8.2 kmh E 7.6 mph12.2 kmh 30.16 in1021.3 mb 0.00 in0.0 mm 0.00 in/hr0.0 mm/hr 0.01 in0.3 mm
11:00 AM 75.2°F24.0°C 70.1°F21.2°C 84% 3.7 mph E6.0 kmh E 6.9 mph11.1 kmh 30.16 in1021.3 mb 0.01 in0.3 mm 0.00 in/hr0.0 mm/hr 0.01 in0.3 mm
10:55 AM 75.2°F24.0°C 70.1°F21.2°C 84% 3.9 mph ENE6.3 kmh ENE 6.9 mph11.1 kmh 30.16 in1021.3 mb 0.01 in0.3 mm 0.00 in/hr0.0 mm/hr 0.01 in0.3 mm
10:50 AM 75.0°F23.9°C 69.9°F21.1°C 84% 4.9 mph NE7.9 kmh NE 7.6 mph12.2 kmh 30.16 in1021.3 mb 0.01 in0.3 mm 0.00 in/hr0.0 mm/hr 0.01 in0.3 mm
10:45 AM 75.2°F24.0°C 69.7°F20.9°C 83% 5.4 mph NE8.7 kmh NE 8.3 mph13.4 kmh 30.16 in1021.3 mb 0.01 in0.3 mm 0.00 in/hr0.0 mm/hr 0.01 in0.3 mm
10:40 AM 75.6°F24.2°C 70.4°F21.3°C 84% 6.4 mph ENE10.3 kmh ENE 10.7 mph17.2 kmh 30.16 in1021.3 mb 0.01 in0.3 mm 0.00 in/hr0.0 mm/hr 0.01 in0.3 mm
10:35 AM 75.2°F24.0°C 70.1°F21.2°C 84% 6.3 mph ENE10.1 kmh ENE 10.7 mph17.2 kmh 30.16 in1021.3 mb 0.01 in0.3 mm 0.00 in/hr0.0 mm/hr 0.01 in0.3 mm
10:30 AM 75.0°F23.9°C 70.6°F21.4°C 86% 5.7 mph ENE9.2 kmh ENE 9.8 mph15.8 kmh 30.16 in1021.3 mb 0.01 in0.3 mm 0.00 in/hr0.0 mm/hr 0.01 in0.3 mm
10:25 AM 74.7°F23.7°C 70.6°F21.4°C 87% 5.0 mph ENE8.0 kmh ENE 9.8 mph15.8 kmh 30.16 in1021.3 mb 0.01 in0.3 mm 0.00 in/hr0.0 mm/hr 0.01 in0.3 mm
10:20 AM 74.3°F23.5°C 70.2°F21.2°C 87% 5.0 mph E8.0 kmh E 7.6 mph12.2 kmh 30.16 in1021.3 mb 0.01 in0.3 mm 0.00 in/hr0.0 mm/hr 0.01 in0.3 mm
10:15 AM 73.8°F23.2°C 69.7°F20.9°C 87% 5.1 mph E8.2 kmh E 7.6 mph12.2 kmh 30.16 in1021.3 mb 0.01 in0.3 mm 0.00 in/hr0.0 mm/hr 0.01 in0.3 mm
10:10 AM 73.6°F23.1°C 69.5°F20.8°C 87% 5.4 mph ENE8.7 kmh ENE 9.2 mph14.8 kmh 30.16 in1021.3 mb 0.01 in0.3 mm 0.00 in/hr0.0 mm/hr 0.01 in0.3 mm
10:05 AM 73.2°F22.9°C 69.2°F20.7°C 87% 6.9 mph ENE11.1 kmh ENE 9.2 mph14.8 kmh 30.16 in1021.3 mb 0.01 in0.3 mm 0.12 in/hr3.0 mm/hr 0.01 in0.3 mm
10:00 AM 73.2°F22.9°C 69.5°F20.8°C 88% 7.0 mph ENE11.3 kmh ENE 9.2 mph14.8 kmh 30.16 in1021.3 mb 0.00 in0.0 mm 0.00 in/hr0.0 mm/hr 0.00 in0.0 mm
09:55 AM 73.0°F22.8°C 69.3°F20.7°C 88% 7.0 mph ENE11.3 kmh ENE 9.2 mph14.8 kmh 30.16 in1021.3 mb 0.00 in0.0 mm 0.00 in/hr0.0 mm/hr 0.00 in0.0 mm
09:50 AM 72.7°F22.6°C 69.0°F20.6°C 88% 7.5 mph ENE12.1 kmh ENE 9.2 mph14.8 kmh 30.16 in1021.3 mb 0.00 in0.0 mm 0.00 in/hr0.0 mm/hr 0.00 in0.0 mm
09:45 AM 72.7°F22.6°C 69.0°F20.6°C 88% 5.6 mph NE9.0 kmh NE 9.2 mph14.8 kmh 30.16 in1021.3 mb 0.00 in0.0 mm 0.00 in/hr0.0 mm/hr 0.00 in0.0 mm
09:40 AM 72.9°F22.7°C 69.1°F20.6°C 88% 4.2 mph NE6.8 kmh NE 6.9 mph11.1 kmh 30.16 in1021.3 mb 0.00 in0.0 mm 0.00 in/hr0.0 mm/hr 0.00 in0.0 mm
09:35 AM 73.0°F22.8°C 69.6°F20.9°C 89% 4.6 mph ENE7.4 kmh ENE 6.9 mph11.1 kmh 30.16 in1021.3 mb 0.00 in0.0 mm 0.00 in/hr0.0 mm/hr 0.00 in0.0 mm
09:30 AM 73.2°F22.9°C 69.8°F21.0°C 89% 4.9 mph ENE7.9 kmh ENE 6.0 mph9.7 kmh 30.16 in1021.3 mb 0.00 in0.0 mm 0.00 in/hr0.0 mm/hr 0.00 in0.0 mm
09:25 AM 73.0°F22.8°C 70.0°F21.1°C 90% 4.9 mph NE7.9 kmh NE 6.0 mph9.7 kmh 30.16 in1021.3 mb 0.00 in0.0 mm 0.00 in/hr0.0 mm/hr 0.00 in0.0 mm
09:20 AM 72.5°F22.5°C 69.8°F21.0°C 91% 4.8 mph NNE7.7 kmh NNE 6.9 mph11.1 kmh 30.16 in1021.3 mb 0.00 in0.0 mm 0.00 in/hr0.0 mm/hr 0.00 in0.0 mm
09:15 AM 71.8°F22.1°C 69.4°F20.8°C 92% 5.2 mph NE8.4 kmh NE 6.9 mph11.1 kmh 30.16 in1021.3 mb 0.00 in0.0 mm 0.00 in/hr0.0 mm/hr 0.00 in0.0 mm
09:10 AM 71.1°F21.7°C 69.0°F20.6°C 93% 4.6 mph NE7.4 kmh NE 6.9 mph11.1 kmh 30.16 in1021.3 mb 0.00 in0.0 mm 0.00 in/hr0.0 mm/hr 0.00 in0.0 mm
09:05 AM 70.9°F21.6°C 68.8°F20.4°C 93% 4.4 mph NE7.1 kmh NE 6.0 mph9.7 kmh 30.16 in1021.3 mb 0.00 in0.0 mm 0.00 in/hr0.0 mm/hr 0.00 in0.0 mm
09:00 AM 70.5°F21.4°C 68.7°F20.4°C 94% 4.5 mph ENE7.2 kmh ENE 7.6 mph12.2 kmh 30.16 in1021.3 mb 0.00 in0.0 mm 0.00 in/hr0.0 mm/hr 0.00 in0.0 mm
08:55 AM 70.5°F21.4°C 68.7°F20.4°C 94% 3.8 mph E6.1 kmh E 7.6 mph12.2 kmh 30.16 in1021.3 mb 0.00 in0.0 mm 0.00 in/hr0.0 mm/hr 0.00 in0.0 mm
08:50 AM 70.2°F21.2°C 68.7°F20.4°C 95% 3.2 mph ENE5.1 kmh ENE 4.5 mph7.2 kmh 30.16 in1021.3 mb 0.00 in0.0 mm 0.00 in/hr0.0 mm/hr 0.00 in0.0 mm
08:45 AM 69.4°F20.8°C 68.3°F20.2°C 96% 3.3 mph NE5.3 kmh NE 4.5 mph7.2 kmh 30.16 in1021.3 mb 0.00 in0.0 mm 0.00 in/hr0.0 mm/hr 0.00 in0.0 mm
08:40 AM 69.1°F20.6°C 67.9°F19.9°C 96% 3.3 mph NE5.3 kmh NE 4.5 mph7.2 kmh 30.16 in1021.3 mb 0.00 in0.0 mm 0.00 in/hr0.0 mm/hr 0.00 in0.0 mm
08:35 AM 68.9°F20.5°C 67.7°F19.8°C 96% 3.4 mph NNE5.5 kmh NNE 4.5 mph7.2 kmh 30.16 in1021.3 mb 0.00 in0.0 mm 0.00 in/hr0.0 mm/hr 0.00 in0.0 mm
08:30 AM 68.7°F20.4°C 67.6°F19.8°C 96% 3.8 mph NNE6.1 kmh NNE 5.4 mph8.7 kmh 30.16 in1021.3 mb 0.00 in0.0 mm 0.00 in/hr0.0 mm/hr 0.00 in0.0 mm
08:25 AM 68.5°F20.3°C 67.4°F19.7°C 96% 3.7 mph NE6.0 kmh NE 5.4 mph8.7 kmh 30.16 in1021.3 mb 0.00 in0.0 mm 0.00 in/hr0.0 mm/hr 0.00 in0.0 mm
08:20 AM 68.7°F20.4°C 67.6°F19.8°C 96% 3.9 mph NE6.3 kmh NE 5.4 mph8.7 kmh 30.16 in1021.3 mb 0.00 in0.0 mm 0.00 in/hr0.0 mm/hr 0.00 in0.0 mm
08:15 AM 68.5°F20.3°C 67.4°F19.7°C 96% 4.2 mph N6.8 kmh N 5.4 mph8.7 kmh 30.16 in1021.3 mb 0.00 in0.0 mm 0.00 in/hr0.0 mm/hr 0.00 in0.0 mm
08:10 AM 68.4°F20.2°C 67.2°F19.6°C 96% 3.8 mph NNE6.1 kmh NNE 5.4 mph8.7 kmh 30.16 in1021.3 mb 0.00 in0.0 mm 0.00 in/hr0.0 mm/hr 0.00 in0.0 mm
08:05 AM 68.4°F20.2°C 67.2°F19.6°C 96% 3.7 mph NE6.0 kmh NE 5.4 mph8.7 kmh 30.16 in1021.3 mb 0.00 in0.0 mm 0.00 in/hr0.0 mm/hr 0.00 in0.0 mm
08:00 AM 68.2°F20.1°C 67.3°F19.6°C 97% 3.3 mph NE5.3 kmh NE 5.4 mph8.7 kmh 30.16 in1021.3 mb 0.00 in0.0 mm 0.00 in/hr0.0 mm/hr 0.00 in0.0 mm
07:55 AM 68.2°F20.1°C 67.3°F19.6°C 97% 2.4 mph NE3.9 kmh NE 3.8 mph6.1 kmh 30.16 in1021.3 mb 0.00 in0.0 mm 0.00 in/hr0.0 mm/hr 0.00 in0.0 mm
07:50 AM 68.0°F20.0°C 67.1°F19.5°C 97% 2.4 mph NNE3.9 kmh NNE 3.8 mph6.1 kmh 30.16 in1021.3 mb 0.00 in0.0 mm 0.00 in/hr0.0 mm/hr 0.00 in0.0 mm
07:45 AM 67.8°F19.9°C 67.3°F19.6°C 98% 3.1 mph NNE5.0 kmh NNE 4.5 mph7.2 kmh 30.16 in1021.3 mb 0.00 in0.0 mm 0.00 in/hr0.0 mm/hr 0.00 in0.0 mm
07:40 AM 67.6°F19.8°C 67.1°F19.5°C 98% 3.2 mph NNE5.1 kmh NNE 4.5 mph7.2 kmh 30.16 in1021.3 mb 0.00 in0.0 mm 0.00 in/hr0.0 mm/hr 0.00 in0.0 mm
07:35 AM 67.1°F19.5°C 66.5°F19.2°C 98% 2.9 mph NNE4.7 kmh NNE 3.8 mph6.1 kmh 30.16 in1021.3 mb 0.00 in0.0 mm 0.00 in/hr0.0 mm/hr 0.00 in0.0 mm
07:30 AM 66.9°F19.4°C 66.4°F19.1°C 98% 3.0 mph NNE4.8 kmh NNE 3.8 mph6.1 kmh 30.16 in1021.3 mb 0.00 in0.0 mm 0.00 in/hr0.0 mm/hr 0.00 in0.0 mm
07:25 AM 66.7°F19.3°C 65.9°F18.8°C 97% 3.2 mph NNE5.1 kmh NNE 3.8 mph6.1 kmh 30.16 in1021.3 mb 0.00 in0.0 mm 0.00 in/hr0.0 mm/hr 0.00 in0.0 mm
07:20 AM 66.6°F19.2°C 65.7°F18.7°C 97% 3.0 mph N4.8 kmh N 4.5 mph7.2 kmh 30.16 in1021.3 mb 0.00 in0.0 mm 0.00 in/hr0.0 mm/hr 0.00 in0.0 mm
07:15 AM 66.4°F19.1°C 65.5°F18.6°C 97% 3.0 mph NNE4.8 kmh NNE 4.5 mph7.2 kmh 30.16 in1021.3 mb 0.00 in0.0 mm 0.00 in/hr0.0 mm/hr 0.00 in0.0 mm
07:10 AM 66.4°F19.1°C 65.5°F18.6°C 97% 3.3 mph NE5.3 kmh NE 5.4 mph8.7 kmh 30.16 in1021.3 mb 0.00 in0.0 mm 0.00 in/hr0.0 mm/hr 0.00 in0.0 mm
07:05 AM 66.4°F19.1°C 65.5°F18.6°C 97% 3.3 mph NE5.3 kmh NE 5.4 mph8.7 kmh 30.16 in1021.3 mb 0.00 in0.0 mm 0.00 in/hr0.0 mm/hr 0.00 in0.0 mm
07:00 AM 66.4°F19.1°C 65.5°F18.6°C 97% 3.2 mph NE5.1 kmh NE 4.5 mph7.2 kmh 30.16 in1021.3 mb 0.00 in0.0 mm 0.00 in/hr0.0 mm/hr 0.00 in0.0 mm
06:55 AM 66.4°F19.1°C 65.5°F18.6°C 97% 3.5 mph NE5.6 kmh NE 5.4 mph8.7 kmh 30.16 in1021.3 mb 0.00 in0.0 mm 0.00 in/hr0.0 mm/hr 0.00 in0.0 mm
06:50 AM 66.4°F19.1°C 65.5°F18.6°C 97% 3.6 mph NE5.8 kmh NE 5.4 mph8.7 kmh 30.16 in1021.3 mb 0.00 in0.0 mm 0.00 in/hr0.0 mm/hr 0.00 in0.0 mm
06:45 AM 66.4°F19.1°C 65.5°F18.6°C 97% 3.5 mph NE5.6 kmh NE 4.5 mph7.2 kmh 30.16 in1021.3 mb 0.00 in0.0 mm 0.00 in/hr0.0 mm/hr 0.00 in0.0 mm
06:40 AM 66.4°F19.1°C 65.5°F18.6°C 97% 3.1 mph NE5.0 kmh NE 4.5 mph7.2 kmh 30.16 in1021.3 mb 0.00 in0.0 mm 0.00 in/hr0.0 mm/hr 0.00 in0.0 mm
06:35 AM 66.4°F19.1°C 65.5°F18.6°C 97% 2.9 mph NE4.7 kmh NE 4.5 mph7.2 kmh 30.16 in1021.3 mb 0.00 in0.0 mm 0.00 in/hr0.0 mm/hr 0.00 in0.0 mm
06:30 AM 66.4°F19.1°C 65.5°F18.6°C 97% 2.8 mph NE4.5 kmh NE 4.5 mph7.2 kmh 30.16 in1021.3 mb 0.00 in0.0 mm 0.00 in/hr0.0 mm/hr 0.00 in0.0 mm
06:25 AM 66.4°F19.1°C 65.5°F18.6°C 97% 2.7 mph NE4.3 kmh NE 4.5 mph7.2 kmh 30.16 in1021.3 mb 0.00 in0.0 mm 0.00 in/hr0.0 mm/hr 0.00 in0.0 mm
06:20 AM 66.4°F19.1°C 65.5°F18.6°C 97% 2.6 mph NE4.2 kmh NE 3.8 mph6.1 kmh 30.16 in1021.3 mb 0.00 in0.0 mm 0.00 in/hr0.0 mm/hr 0.00 in0.0 mm
06:15 AM 66.4°F19.1°C 65.5°F18.6°C 97% 2.5 mph ENE4.0 kmh ENE 3.8 mph6.1 kmh 30.16 in1021.3 mb 0.00 in0.0 mm 0.00 in/hr0.0 mm/hr 0.00 in0.0 mm
06:10 AM 66.4°F19.1°C 65.5°F18.6°C 97% 2.5 mph NE4.0 kmh NE 3.8 mph6.1 kmh 30.16 in1021.3 mb 0.00 in0.0 mm 0.00 in/hr0.0 mm/hr 0.00 in0.0 mm
06:05 AM 66.4°F19.1°C 65.5°F18.6°C 97% 2.9 mph NE4.7 kmh NE 5.4 mph8.7 kmh 30.16 in1021.3 mb 0.00 in0.0 mm 0.00 in/hr0.0 mm/hr 0.00 in0.0 mm
06:00 AM 66.4°F19.1°C 65.5°F18.6°C 97% 3.1 mph NE5.0 kmh NE 5.4 mph8.7 kmh 30.16 in1021.3 mb 0.00 in0.0 mm 0.00 in/hr0.0 mm/hr 0.00 in0.0 mm
05:55 AM 66.4°F19.1°C 65.5°F18.6°C 97% 3.2 mph NE5.1 kmh NE 4.5 mph7.2 kmh 30.16 in1021.3 mb 0.00 in0.0 mm 0.00 in/hr0.0 mm/hr 0.00 in0.0 mm
05:50 AM 66.4°F19.1°C 65.5°F18.6°C 97% 3.4 mph NE5.5 kmh NE 4.5 mph7.2 kmh 30.16 in1021.3 mb 0.00 in0.0 mm 0.00 in/hr0.0 mm/hr 0.00 in0.0 mm
05:45 AM 66.4°F19.1°C 65.5°F18.6°C 97% 3.2 mph NNE5.1 kmh NNE 4.5 mph7.2 kmh 30.16 in1021.3 mb 0.00 in0.0 mm 0.00 in/hr0.0 mm/hr 0.00 in0.0 mm
05:40 AM 66.4°F19.1°C 65.5°F18.6°C 97% 3.4 mph NNE5.5 kmh NNE 5.4 mph8.7 kmh 30.16 in1021.3 mb 0.00 in0.0 mm 0.00 in/hr0.0 mm/hr 0.00 in0.0 mm
05:35 AM 66.4°F19.1°C 65.5°F18.6°C 97% 3.6 mph NE5.8 kmh NE 5.4 mph8.7 kmh 30.16 in1021.3 mb 0.00 in0.0 mm 0.00 in/hr0.0 mm/hr 0.00 in0.0 mm
05:30 AM 66.4°F19.1°C 65.5°F18.6°C 97% 3.4 mph NE5.5 kmh NE 4.5 mph7.2 kmh 30.16 in1021.3 mb 0.00 in0.0 mm 0.00 in/hr0.0 mm/hr 0.00 in0.0 mm
05:25 AM 66.4°F19.1°C 65.5°F18.6°C 97% 3.5 mph NE5.6 kmh NE 4.5 mph7.2 kmh 30.16 in1021.3 mb 0.00 in0.0 mm 0.00 in/hr0.0 mm/hr 0.00 in0.0 mm
05:20 AM 66.4°F19.1°C 65.5°F18.6°C 97% 3.2 mph NE5.1 kmh NE 4.5 mph7.2 kmh 30.16 in1021.3 mb 0.00 in0.0 mm 0.00 in/hr0.0 mm/hr 0.00 in0.0 mm
05:15 AM 66.4°F19.1°C 65.5°F18.6°C 97% 3.3 mph NE5.3 kmh NE 4.5 mph7.2 kmh 30.16 in1021.3 mb 0.00 in0.0 mm 0.00 in/hr0.0 mm/hr 0.00 in0.0 mm
05:10 AM 66.2°F19.0°C 65.4°F18.6°C 97% 3.1 mph NE5.0 kmh NE 4.5 mph7.2 kmh 30.16 in1021.3 mb 0.00 in0.0 mm 0.00 in/hr0.0 mm/hr 0.00 in0.0 mm
05:05 AM 66.2°F19.0°C 65.4°F18.6°C 97% 2.5 mph NE4.0 kmh NE 3.8 mph6.1 kmh 30.16 in1021.3 mb 0.00 in0.0 mm 0.00 in/hr0.0 mm/hr 0.00 in0.0 mm
05:00 AM 66.0°F18.9°C 65.5°F18.6°C 98% 3.0 mph NE4.8 kmh NE 4.5 mph7.2 kmh 30.16 in1021.3 mb 0.00 in0.0 mm 0.00 in/hr0.0 mm/hr 0.00 in0.0 mm
04:55 AM 65.8°F18.8°C 65.3°F18.5°C 98% 3.5 mph NE5.6 kmh NE 4.5 mph7.2 kmh 30.16 in1021.3 mb 0.00 in0.0 mm 0.00 in/hr0.0 mm/hr 0.00 in0.0 mm
04:50 AM 65.8°F18.8°C 65.3°F18.5°C 98% 3.4 mph NE5.5 kmh NE 4.5 mph7.2 kmh 30.16 in1021.3 mb 0.00 in0.0 mm 0.00 in/hr0.0 mm/hr 0.00 in0.0 mm
04:45 AM 65.8°F18.8°C 65.0°F18.3°C 97% 3.1 mph NNE5.0 kmh NNE 4.5 mph7.2 kmh 30.16 in1021.3 mb 0.00 in0.0 mm 0.00 in/hr0.0 mm/hr 0.00 in0.0 mm
04:40 AM 66.0°F18.9°C 65.2°F18.4°C 97% 2.9 mph N4.7 kmh N 4.5 mph7.2 kmh 30.16 in1021.3 mb 0.00 in0.0 mm 0.00 in/hr0.0 mm/hr 0.00 in0.0 mm
04:35 AM 66.0°F18.9°C 65.2°F18.4°C 97% 3.4 mph N5.5 kmh N 4.5 mph7.2 kmh 30.16 in1021.3 mb 0.00 in0.0 mm 0.00 in/hr0.0 mm/hr 0.00 in0.0 mm
04:30 AM 66.0°F18.9°C 65.2°F18.4°C 97% 3.5 mph NNE5.6 kmh NNE 4.5 mph7.2 kmh 30.16 in1021.3 mb 0.00 in0.0 mm 0.00 in/hr0.0 mm/hr 0.00 in0.0 mm
04:25 AM 66.0°F18.9°C 65.2°F18.4°C 97% 3.5 mph NNE5.6 kmh NNE 5.4 mph8.7 kmh 30.16 in1021.3 mb 0.00 in0.0 mm 0.00 in/hr0.0 mm/hr 0.00 in0.0 mm
04:20 AM 66.2°F19.0°C 65.1°F18.4°C 96% 3.7 mph N6.0 kmh N 5.4 mph8.7 kmh 30.16 in1021.3 mb 0.00 in0.0 mm 0.00 in/hr0.0 mm/hr 0.00 in0.0 mm
04:15 AM 66.2°F19.0°C 65.1°F18.4°C 96% 3.9 mph N6.3 kmh N 5.4 mph8.7 kmh 30.16 in1021.3 mb 0.00 in0.0 mm 0.00 in/hr0.0 mm/hr 0.00 in0.0 mm
04:10 AM 66.4°F19.1°C 65.2°F18.4°C 96% 2.7 mph NNW4.3 kmh NNW 5.4 mph8.7 kmh 30.16 in1021.3 mb 0.00 in0.0 mm 0.00 in/hr0.0 mm/hr 0.00 in0.0 mm
04:05 AM 66.6°F19.2°C 65.7°F18.7°C 97% 1.6 mph N2.6 kmh N 2.2 mph3.5 kmh 30.16 in1021.3 mb 0.00 in0.0 mm 0.00 in/hr0.0 mm/hr 0.00 in0.0 mm
04:00 AM 66.9°F19.4°C 66.1°F18.9°C 97% 2.2 mph N3.5 kmh N 4.5 mph7.2 kmh 30.16 in1021.3 mb 0.00 in0.0 mm 0.00 in/hr0.0 mm/hr 0.00 in0.0 mm
03:55 AM 67.1°F19.5°C 66.3°F19.1°C 97% 3.0 mph N4.8 kmh N 4.5 mph7.2 kmh 30.16 in1021.3 mb 0.00 in0.0 mm 0.00 in/hr0.0 mm/hr 0.00 in0.0 mm
03:50 AM 67.3°F19.6°C 66.4°F19.1°C 97% 3.6 mph NNE5.8 kmh NNE 6.0 mph9.7 kmh 30.16 in1021.3 mb 0.00 in0.0 mm 0.00 in/hr0.0 mm/hr 0.00 in0.0 mm
03:45 AM 67.3°F19.6°C 66.4°F19.1°C 97% 3.7 mph NNE6.0 kmh NNE 6.0 mph9.7 kmh 30.16 in1021.3 mb 0.00 in0.0 mm 0.00 in/hr0.0 mm/hr 0.00 in0.0 mm
03:40 AM 67.3°F19.6°C 66.4°F19.1°C 97% 3.4 mph NE5.5 kmh NE 4.5 mph7.2 kmh 30.16 in1021.3 mb 0.00 in0.0 mm 0.00 in/hr0.0 mm/hr 0.00 in0.0 mm
03:35 AM 67.1°F19.5°C 66.5°F19.2°C 98% 3.1 mph NE5.0 kmh NE 3.8 mph6.1 kmh 30.16 in1021.3 mb 0.00 in0.0 mm 0.00 in/hr0.0 mm/hr 0.00 in0.0 mm
03:30 AM 67.1°F19.5°C 66.5°F19.2°C 98% 3.6 mph NE5.8 kmh NE 5.4 mph8.7 kmh 30.16 in1021.3 mb 0.00 in0.0 mm 0.00 in/hr0.0 mm/hr 0.00 in0.0 mm
03:25 AM 66.9°F19.4°C 66.4°F19.1°C 98% 3.9 mph NE6.3 kmh NE 5.4 mph8.7 kmh 30.16 in1021.3 mb 0.00 in0.0 mm 0.00 in/hr0.0 mm/hr 0.00 in0.0 mm
03:20 AM 66.9°F19.4°C 66.4°F19.1°C 98% 3.6 mph NE5.8 kmh NE 5.4 mph8.7 kmh 30.16 in1021.3 mb 0.00 in0.0 mm 0.00 in/hr0.0 mm/hr 0.00 in0.0 mm
03:15 AM 66.9°F19.4°C 66.4°F19.1°C 98% 3.9 mph NE6.3 kmh NE 6.0 mph9.7 kmh 30.16 in1021.3 mb 0.00 in0.0 mm 0.00 in/hr0.0 mm/hr 0.00 in0.0 mm
03:10 AM 66.9°F19.4°C 66.4°F19.1°C 98% 4.1 mph NE6.6 kmh NE 6.0 mph9.7 kmh 30.16 in1021.3 mb 0.00 in0.0 mm 0.00 in/hr0.0 mm/hr 0.00 in0.0 mm
03:05 AM 66.7°F19.3°C 66.2°F19.0°C 98% 4.1 mph NE6.6 kmh NE 6.0 mph9.7 kmh 30.16 in1021.3 mb 0.00 in0.0 mm 0.00 in/hr0.0 mm/hr 0.00 in0.0 mm
03:00 AM 66.6°F19.2°C 66.0°F18.9°C 98% 4.2 mph NE6.8 kmh NE 5.4 mph8.7 kmh 30.16 in1021.3 mb 0.00 in0.0 mm 0.00 in/hr0.0 mm/hr 0.00 in0.0 mm
02:55 AM 66.6°F19.2°C 66.0°F18.9°C 98% 4.1 mph ENE6.6 kmh ENE 5.4 mph8.7 kmh 30.16 in1021.3 mb 0.00 in0.0 mm 0.00 in/hr0.0 mm/hr 0.00 in0.0 mm
02:50 AM 66.2°F19.0°C 65.6°F18.7°C 98% 3.5 mph NE5.6 kmh NE 5.4 mph8.7 kmh 30.16 in1021.3 mb 0.00 in0.0 mm 0.00 in/hr0.0 mm/hr 0.00 in0.0 mm
02:45 AM 66.2°F19.0°C 65.6°F18.7°C 98% 3.0 mph ENE4.8 kmh ENE 3.8 mph6.1 kmh 30.16 in1021.3 mb 0.00 in0.0 mm 0.00 in/hr0.0 mm/hr 0.00 in0.0 mm
02:40 AM 66.2°F19.0°C 65.6°F18.7°C 98% 3.3 mph ENE5.3 kmh ENE 5.4 mph8.7 kmh 30.16 in1021.3 mb 0.00 in0.0 mm 0.00 in/hr0.0 mm/hr 0.00 in0.0 mm
02:35 AM 66.0°F18.9°C 65.5°F18.6°C 98% 3.0 mph NE4.8 kmh NE 5.4 mph8.7 kmh 30.16 in1021.3 mb 0.00 in0.0 mm 0.00 in/hr0.0 mm/hr 0.00 in0.0 mm
02:30 AM 65.7°F18.7°C 65.1°F18.4°C 98% 1.8 mph NE2.9 kmh NE 4.5 mph7.2 kmh 30.16 in1021.3 mb 0.00 in0.0 mm 0.00 in/hr0.0 mm/hr 0.00 in0.0 mm
02:25 AM 65.7°F18.7°C 65.1°F18.4°C 98% 1.7 mph NE2.7 kmh NE 3.1 mph5.0 kmh 30.16 in1021.3 mb 0.00 in0.0 mm 0.00 in/hr0.0 mm/hr 0.00 in0.0 mm
02:20 AM 65.7°F18.7°C 65.1°F18.4°C 98% 1.0 mph NE1.6 kmh NE 3.1 mph5.0 kmh 30.16 in1021.3 mb 0.00 in0.0 mm 0.00 in/hr0.0 mm/hr 0.00 in0.0 mm
02:15 AM 65.5°F18.6°C 64.9°F18.3°C 98% 0.1 mph NE0.2 kmh NE 1.6 mph2.6 kmh 30.16 in1021.3 mb 0.00 in0.0 mm 0.00 in/hr0.0 mm/hr 0.00 in0.0 mm
02:10 AM 65.5°F18.6°C 64.9°F18.3°C 98% 0.2 mph NE0.3 kmh NE 1.6 mph2.6 kmh 30.16 in1021.3 mb 0.00 in0.0 mm 0.00 in/hr0.0 mm/hr 0.00 in0.0 mm
02:05 AM 65.5°F18.6°C 64.9°F18.3°C 98% 0.7 mph NE1.1 kmh NE 2.2 mph3.5 kmh 30.16 in1021.3 mb 0.00 in0.0 mm 0.00 in/hr0.0 mm/hr 0.00 in0.0 mm
02:00 AM 65.5°F18.6°C 64.9°F18.3°C 98% 1.2 mph NE1.9 kmh NE 2.2 mph3.5 kmh 30.16 in1021.3 mb 0.00 in0.0 mm 0.00 in/hr0.0 mm/hr 0.00 in0.0 mm
01:55 AM 65.3°F18.5°C 64.7°F18.2°C 98% 0.8 mph NE1.3 kmh NE 2.2 mph3.5 kmh 30.16 in1021.3 mb 0.00 in0.0 mm 0.00 in/hr0.0 mm/hr 0.00 in0.0 mm
01:50 AM 65.3°F18.5°C 64.7°F18.2°C 98% 0.5 mph NE0.8 kmh NE 2.2 mph3.5 kmh 30.16 in1021.3 mb 0.00 in0.0 mm 0.00 in/hr0.0 mm/hr 0.00 in0.0 mm
01:45 AM 65.3°F18.5°C 64.7°F18.2°C 98% 1.0 mph NE1.6 kmh NE 2.2 mph3.5 kmh 30.16 in1021.3 mb 0.00 in0.0 mm 0.00 in/hr0.0 mm/hr 0.00 in0.0 mm
01:40 AM 65.3°F18.5°C 64.7°F18.2°C 98% 1.0 mph NE1.6 kmh NE 2.2 mph3.5 kmh 30.16 in1021.3 mb 0.00 in0.0 mm 0.00 in/hr0.0 mm/hr 0.00 in0.0 mm
01:35 AM 65.3°F18.5°C 64.7°F18.2°C 98% 0.6 mph NE1.0 kmh NE 1.6 mph2.6 kmh 30.16 in1021.3 mb 0.00 in0.0 mm 0.00 in/hr0.0 mm/hr 0.00 in0.0 mm
01:30 AM 65.3°F18.5°C 64.7°F18.2°C 98% 1.1 mph NE1.8 kmh NE 2.2 mph3.5 kmh 30.16 in1021.3 mb 0.00 in0.0 mm 0.00 in/hr0.0 mm/hr 0.00 in0.0 mm
01:25 AM 65.3°F18.5°C 64.7°F18.2°C 98% 1.8 mph NE2.9 kmh NE 2.2 mph3.5 kmh 30.16 in1021.3 mb 0.00 in0.0 mm 0.00 in/hr0.0 mm/hr 0.00 in0.0 mm
01:20 AM 65.3°F18.5°C 64.7°F18.2°C 98% 2.1 mph NNE3.4 kmh NNE 3.8 mph6.1 kmh 30.16 in1021.3 mb 0.00 in0.0 mm 0.00 in/hr0.0 mm/hr 0.00 in0.0 mm
01:15 AM 65.3°F18.5°C 64.7°F18.2°C 98% 2.1 mph NNE3.4 kmh NNE 3.8 mph6.1 kmh 30.16 in1021.3 mb 0.00 in0.0 mm 0.00 in/hr0.0 mm/hr 0.00 in0.0 mm
01:10 AM 65.3°F18.5°C 64.7°F18.2°C 98% 1.8 mph NE2.9 kmh NE 3.8 mph6.1 kmh 30.16 in1021.3 mb 0.00 in0.0 mm 0.00 in/hr0.0 mm/hr 0.00 in0.0 mm
01:05 AM 65.5°F18.6°C 64.9°F18.3°C 98% 1.7 mph NE2.7 kmh NE 2.2 mph3.5 kmh 30.16 in1021.3 mb 0.00 in0.0 mm 0.00 in/hr0.0 mm/hr 0.00 in0.0 mm
01:00 AM 65.5°F18.6°C 64.9°F18.3°C 98% 1.3 mph NE2.1 kmh NE 2.2 mph3.5 kmh 30.16 in1021.3 mb 0.00 in0.0 mm 0.00 in/hr0.0 mm/hr 0.00 in0.0 mm
12:55 AM 65.5°F18.6°C 64.9°F18.3°C 98% 0.9 mph NE1.4 kmh NE 1.6 mph2.6 kmh 30.16 in1021.3 mb 0.00 in0.0 mm 0.00 in/hr0.0 mm/hr 0.00 in0.0 mm
12:50 AM 65.7°F18.7°C 65.1°F18.4°C 98% 0.7 mph NE1.1 kmh NE 2.2 mph3.5 kmh 30.16 in1021.3 mb 0.00 in0.0 mm 0.00 in/hr0.0 mm/hr 0.00 in0.0 mm
12:45 AM 65.7°F18.7°C 65.1°F18.4°C 98% 0.6 mph NE1.0 kmh NE 2.2 mph3.5 kmh 30.16 in1021.3 mb 0.00 in0.0 mm 0.00 in/hr0.0 mm/hr 0.00 in0.0 mm
12:40 AM 65.7°F18.7°C 65.1°F18.4°C 98% 1.4 mph NE2.3 kmh NE 3.1 mph5.0 kmh 30.16 in1021.3 mb 0.00 in0.0 mm 0.00 in/hr0.0 mm/hr 0.00 in0.0 mm
12:35 AM 65.8°F18.8°C 65.3°F18.5°C 98% 2.4 mph NE3.9 kmh NE 3.1 mph5.0 kmh 30.16 in1021.3 mb 0.00 in0.0 mm 0.00 in/hr0.0 mm/hr 0.00 in0.0 mm
12:30 AM 65.8°F18.8°C 65.3°F18.5°C 98% 2.6 mph NE4.2 kmh NE 3.1 mph5.0 kmh 30.16 in1021.3 mb 0.00 in0.0 mm 0.00 in/hr0.0 mm/hr 0.00 in0.0 mm
12:25 AM 65.8°F18.8°C 65.3°F18.5°C 98% 2.8 mph NE4.5 kmh NE 3.8 mph6.1 kmh 30.16 in1021.3 mb 0.00 in0.0 mm 0.00 in/hr0.0 mm/hr 0.00 in0.0 mm
12:20 AM 65.8°F18.8°C 65.3°F18.5°C 98% 3.3 mph NNE5.3 kmh NNE 5.4 mph8.7 kmh 30.16 in1021.3 mb 0.00 in0.0 mm 0.00 in/hr0.0 mm/hr 0.00 in0.0 mm
12:15 AM 65.8°F18.8°C 65.3°F18.5°C 98% 3.6 mph NNE5.8 kmh NNE 6.0 mph9.7 kmh 30.16 in1021.3 mb 0.00 in0.0 mm 0.00 in/hr0.0 mm/hr 0.00 in0.0 mm
12:10 AM 65.8°F18.8°C 65.3°F18.5°C 98% 4.0 mph NE6.4 kmh NE 6.0 mph9.7 kmh 30.16 in1021.3 mb 0.00 in0.0 mm 0.00 in/hr0.0 mm/hr 0.00 in0.0 mm
12:05 AM 65.8°F18.8°C 65.3°F18.5°C 98% 4.1 mph NE6.6 kmh NE 6.0 mph9.7 kmh 30.16 in1021.3 mb 0.00 in0.0 mm 0.00 in/hr0.0 mm/hr 0.00 in0.0 mm
12:00 AM 65.8°F18.8°C 65.3°F18.5°C 98% 3.4 mph NE5.5 kmh NE 5.4 mph8.7 kmh 30.16 in1021.3 mb 0.00 in0.0 mm 0.00 in/hr0.0 mm/hr 0.00 in0.0 mm